< < Back
Terminal Aerodrome Forecast


Current Version              Previous Versions:   1  2  3  4  5  6  7  8  9  

Terminal Aerodrome Forecast

278
FTUS42 KMLB 191900 AAA
TAFDAB
TAF AMD
KDAB 191921Z 1919/2018 24013KT P6SM SCT035 BKN050
     FM200000 30005KT P6SM SCT012 BKN020
      TEMPO 2010/2014 BKN012
     FM201400 35015KT P6SM VCSH SCT025 BKN040
      TEMPO 2014/2018 BKN025=

Latest METAR

819
SAUS80 KWBC 200000 RRB
MTRDAB
METAR KDAB 192353Z 27010KT 10SM SCT037 SCT060 19/14 A2992 RMK AO2 SLP130
CB DSNT NE T01940144 10256 20194 51015


USA.gov is the U.S. government's official web portal to all federal, state and local government web resources and services.